Time;durP1;ratioP1;P1;durP2;ratioP2;P2;SDS_P1;SDS_P2;PMS_P1;PMS_P2;Temp;Humidity;BMP_temperature;BMP_pressure;BME280_temperature;BME280_humidity;BME280_pressure;Samples;Min_cycle;Max_cycle;Signal;HPM_P1;HPM_P2
2022/10/31 00:02:06;;;;;;;1999.90;999.90;;;;;;;11.37;100.00;94426.50;5055015;28;20174;-61
2022/10/31 00:04:31;;;;;;;1999.90;999.90;;;;;;;11.37;100.00;94440.91;5055137;28;20191;-61
2022/10/31 00:06:56;;;;;;;1999.90;999.90;;;;;;;11.35;100.00;94437.06;5054948;28;20262;-61
2022/10/31 00:09:22;;;;;;;1999.90;999.90;;;;;;;11.27;100.00;94441.19;5055201;28;20186;-62
2022/10/31 00:11:47;;;;;;;1999.90;999.90;;;;;;;11.21;100.00;94448.38;5055073;28;20202;-62
2022/10/31 00:14:13;;;;;;;1999.90;999.90;;;;;;;11.16;100.00;94435.25;5054871;28;20176;-67
2022/10/31 00:16:40;;;;;;;1999.90;999.90;;;;;;;11.14;100.00;94415.81;5055563;28;20201;-68
2022/10/31 00:19:06;;;;;;;1999.90;999.90;;;;;;;11.16;100.00;94416.13;5054943;28;20261;-68
2022/10/31 00:21:33;;;;;;;1999.90;999.90;;;;;;;11.15;100.00;94406.41;5055725;28;20189;-68
2022/10/31 00:23:59;;;;;;;1999.90;999.90;;;;;;;11.12;100.00;94388.13;5054824;28;20186;-68
2022/10/31 00:26:27;;;;;;;1999.90;999.90;;;;;;;11.14;100.00;94380.28;5054993;28;20235;-68
2022/10/31 00:28:52;;;;;;;1999.90;999.90;;;;;;;11.13;100.00;94376.00;5054442;28;20227;-68
2022/10/31 00:31:17;;;;;;;1999.90;999.90;;;;;;;11.13;100.00;94371.31;5054288;28;20206;-62
2022/10/31 00:33:43;;;;;;;1999.90;999.90;;;;;;;11.07;100.00;94358.59;5054467;28;20178;-63
2022/10/31 00:36:13;;;;;;;1999.90;999.90;;;;;;;11.09;100.00;94348.78;5054188;28;20245;-68
2022/10/31 00:38:39;;;;;;;1999.90;999.90;;;;;;;11.10;100.00;94333.91;5055168;28;20170;-68
2022/10/31 00:41:04;;;;;;;1999.90;999.90;;;;;;;11.13;100.00;94326.81;5054386;28;20271;-69
2022/10/31 00:43:29;;;;;;;1999.90;999.90;;;;;;;11.14;100.00;94307.25;5054454;28;20200;-68
2022/10/31 00:45:55;;;;;;;1999.90;999.90;;;;;;;11.15;100.00;94308.78;5054543;28;20178;-69
2022/10/31 00:48:20;;;;;;;1999.90;999.90;;;;;;;11.15;100.00;94310.75;5054615;28;20281;-69
2022/10/31 00:50:45;;;;;;;1999.90;999.90;;;;;;;11.11;100.00;94324.50;5054338;28;20201;-75
2022/10/31 00:53:11;;;;;;;1999.90;999.90;;;;;;;11.14;100.00;94331.09;5054923;28;20210;-62
2022/10/31 00:55:36;;;;;;;1999.90;999.90;;;;;;;11.11;100.00;94340.16;5054288;28;20172;-61
2022/10/31 00:58:01;;;;;;;1999.90;999.90;;;;;;;11.05;100.00;94350.06;5054311;28;20181;-61
2022/10/31 01:00:27;;;;;;;1999.90;999.90;;;;;;;11.05;100.00;94369.19;5053853;28;20172;-61
2022/10/31 01:02:52;;;;;;;1999.90;999.90;;;;;;;11.03;100.00;94372.34;5054265;28;20178;-62
2022/10/31 01:05:18;;;;;;;1999.90;999.90;;;;;;;11.01;100.00;94368.53;5054275;28;20196;-62
2022/10/31 01:07:43;;;;;;;1999.90;999.90;;;;;;;10.98;100.00;94385.75;5054668;28;20170;-61
2022/10/31 01:10:10;;;;;;;1999.90;999.90;;;;;;;10.96;100.00;94399.09;5054626;28;20239;-67
2022/10/31 01:12:45;;;;;;;1999.90;999.90;;;;;;;10.96;100.00;94388.19;5054080;28;20180;-63
2022/10/31 01:15:12;;;;;;;1999.90;999.90;;;;;;;10.92;100.00;94401.16;5053732;28;20168;-64
2022/10/31 01:17:38;;;;;;;1999.90;999.90;;;;;;;10.90;100.00;94395.34;5054149;28;20179;-64
2022/10/31 01:20:05;;;;;;;1999.90;999.90;;;;;;;10.88;100.00;94397.72;5053670;28;20237;-64
2022/10/31 01:22:31;;;;;;;1999.90;999.90;;;;;;;10.88;100.00;94397.72;5053893;28;20222;-64
2022/10/31 01:24:56;;;;;;;1999.90;999.90;;;;;;;10.86;100.00;94411.06;5054166;28;20175;-65
2022/10/31 01:27:21;;;;;;;1999.90;999.90;;;;;;;10.85;100.00;94404.06;5054225;28;20185;-63
2022/10/31 01:29:47;;;;;;;1999.90;999.90;;;;;;;10.80;100.00;94418.22;5053998;28;20231;-65
2022/10/31 01:32:12;;;;;;;1999.90;999.90;;;;;;;10.75;100.00;94433.19;5054130;28;20183;-64
2022/10/31 01:34:37;;;;;;;1999.90;999.90;;;;;;;10.73;100.00;94437.50;5053796;28;20202;-64
2022/10/31 01:37:03;;;;;;;1999.90;999.90;;;;;;;10.71;100.00;94435.19;5053476;28;20186;-64
2022/10/31 01:39:28;;;;;;;1999.90;999.90;;;;;;;10.70;100.00;94441.88;5053328;28;20183;-64
2022/10/31 01:41:54;;;;;;;1999.90;999.90;;;;;;;10.70;100.00;94430.19;5053578;28;20177;-64
2022/10/31 01:44:19;;;;;;;1999.90;999.90;;;;;;;10.69;100.00;94434.09;5053571;28;20236;-64
2022/10/31 01:46:47;;;;;;;1999.90;999.90;;;;;;;10.68;100.00;94422.44;5053719;28;20204;-61
2022/10/31 01:49:17;;;;;;;1999.90;999.90;;;;;;;10.71;100.00;94426.25;5053087;28;20194;-61
2022/10/31 01:52:05;;;;;;;1999.90;999.90;;;;;;;10.71;100.00;94418.06;5053472;28;20210;-61
2022/10/31 01:54:37;;;;;;;1999.90;999.90;;;;;;;10.69;100.00;94425.91;5053767;28;20177;-61
2022/10/31 01:57:06;;;;;;;1999.90;999.90;;;;;;;10.66;100.00;94426.75;5053564;28;20228;-61
2022/10/31 01:59:36;;;;;;;1999.90;999.90;;;;;;;10.61;100.00;94432.75;5053530;28;20179;-61
2022/10/31 02:02:02;;;;;;;1999.90;999.90;;;;;;;10.58;100.00;94439.03;5053925;28;20235;-61
2022/10/31 02:04:27;;;;;;;1999.90;999.90;;;;;;;10.55;100.00;94439.91;5053329;28;20199;-65
2022/10/31 02:06:59;;;;;;;1999.90;999.90;;;;;;;10.51;100.00;94433.75;5053461;28;20178;-65
2022/10/31 02:09:25;;;;;;;1999.90;999.90;;;;;;;10.50;100.00;94422.09;5053266;28;20596;-64
2022/10/31 02:11:54;;;;;;;1999.90;999.90;;;;;;;10.53;100.00;94415.00;5053339;28;20182;-65
2022/10/31 02:14:23;;;;;;;1999.90;999.90;;;;;;;10.53;100.00;94415.78;5053200;28;20201;-65
2022/10/31 02:16:49;;;;;;;1999.90;999.90;;;;;;;10.51;100.00;94422.84;5053395;28;20174;-65
2022/10/31 02:19:22;;;;;;;1999.90;999.90;;;;;;;10.47;100.00;94424.88;5053282;28;20184;-65
2022/10/31 02:21:56;;;;;;;1999.90;999.90;;;;;;;10.46;100.00;94431.53;5053735;28;20240;-64
2022/10/31 02:24:58;;;;;;;1999.90;999.90;;;;;;;10.45;100.00;94430.75;5053214;28;20166;-72
2022/10/31 02:27:41;;;;;;;1999.90;999.90;;;;;;;10.41;100.00;94435.53;5053523;28;20176;-65
2022/10/31 02:30:14;;;;;;;1999.90;999.90;;;;;;;10.40;100.00;94428.56;5053615;28;20195;-64
2022/10/31 02:32:49;;;;;;;1999.90;999.90;;;;;;;10.39;100.00;94427.03;5053016;28;20166;-64
2022/10/31 02:35:26;;;;;;;1999.90;999.90;;;;;;;10.39;100.00;94437.16;5053182;28;20177;-64
2022/10/31 02:38:30;;;;;;;1999.90;999.90;;;;;;;10.37;100.00;94434.09;5053108;28;20171;-65
2022/10/31 02:41:06;;;;;;;1999.90;999.90;;;;;;;10.35;100.00;94444.66;5042891;28;20186;-72
2022/10/31 02:43:40;;;;;;;1999.90;999.90;;;;;;;10.33;100.00;94439.63;5053104;28;20170;-62
2022/10/31 02:46:32;;;;;;;1999.90;999.90;;;;;;;10.30;100.00;94450.63;5052806;28;20174;-62
2022/10/31 02:49:05;;;;;;;1999.90;999.90;;;;;;;10.29;100.00;94454.53;5053229;28;20161;-62
2022/10/31 02:51:30;;;;;;;1999.90;999.90;;;;;;;10.26;100.00;94455.41;5053483;28;20198;-62
2022/10/31 02:53:55;;;;;;;1999.90;999.90;;;;;;;10.24;100.00;94457.78;5052928;28;20199;-62
2022/10/31 02:56:21;;;;;;;1999.90;999.90;;;;;;;10.25;100.00;94453.84;5053466;28;20189;-62
2022/10/31 02:58:54;;;;;;;1999.90;999.90;;;;;;;10.24;100.00;94457.78;5053130;28;20174;-67
2022/10/31 03:01:28;;;;;;;1999.90;999.90;;;;;;;10.18;100.00;94462.19;5052858;28;20187;-64
2022/10/31 03:04:01;;;;;;;1999.90;999.90;;;;;;;10.13;100.00;94468.94;5053325;28;20197;-64
2022/10/31 03:06:33;;;;;;;1999.90;999.90;;;;;;;10.08;100.00;94477.59;5056070;28;20229;-65
2022/10/31 03:09:02;;;;;;;1999.90;999.90;;;;;;;10.12;100.00;94477.53;5056866;28;20170;-65
2022/10/31 03:11:39;;;;;;;1999.90;999.90;;;;;;;10.09;100.00;94474.44;5056249;28;20286;-65
2022/10/31 03:14:28;;;;;;;1999.90;999.90;;;;;;;10.04;100.00;94483.09;5056933;28;20197;-65
2022/10/31 03:16:59;;;;;;;1999.90;999.90;;;;;;;10.04;100.00;94483.09;5056739;28;20178;-67
2022/10/31 03:19:25;;;;;;;1999.90;999.90;;;;;;;10.01;100.00;94473.03;5056346;28;20177;-64
2022/10/31 03:21:56;;;;;;;1999.90;999.90;;;;;;;10.01;100.00;94467.59;5056101;28;20264;-65
2022/10/31 03:24:25;;;;;;;1999.90;999.90;;;;;;;10.01;100.00;94456.66;5056633;28;20169;-65
2022/10/31 03:26:55;;;;;;;1999.90;999.90;;;;;;;10.03;100.00;94464.44;5056002;28;20184;-65
2022/10/31 03:29:24;;;;;;;1999.90;999.90;;;;;;;10.04;100.00;94452.31;5056272;28;20226;-65
2022/10/31 03:32:02;;;;;;;1999.90;999.90;;;;;;;10.05;100.00;94449.22;5055872;28;20231;-64
2022/10/31 03:34:29;;;;;;;1999.90;999.90;;;;;;;10.05;100.00;94445.69;5056564;28;20178;-65
2022/10/31 03:36:59;;;;;;;1999.90;999.90;;;;;;;10.00;100.00;94455.16;5055653;28;20181;-68
2022/10/31 03:39:27;;;;;;;1999.90;999.90;;;;;;;9.94;100.00;94456.03;5056537;28;20227;-64
2022/10/31 03:41:57;;;;;;;1999.90;999.90;;;;;;;9.89;100.00;94468.25;5056208;28;20182;-65
2022/10/31 03:44:24;;;;;;;1999.90;999.90;;;;;;;9.87;100.00;94478.78;5056006;28;20181;-64
2022/10/31 03:46:49;;;;;;;1999.90;999.90;;;;;;;9.83;100.00;94483.53;5056182;28;20236;-65
2022/10/31 03:49:16;;;;;;;1999.90;999.90;;;;;;;9.79;100.00;94488.28;5056222;28;20268;-65
2022/10/31 03:51:48;;;;;;;1999.90;999.90;;;;;;;9.79;100.00;94485.56;5055685;28;20198;-65
2022/10/31 03:54:20;;;;;;;1999.90;999.90;;;;;;;9.80;100.00;94476.19;5055282;28;20170;-72
2022/10/31 03:56:53;;;;;;;1999.90;999.90;;;;;;;9.79;100.00;94487.53;5055919;28;20174;-62
2022/10/31 03:59:29;;;;;;;1999.90;999.90;;;;;;;9.77;100.00;94479.75;5055917;28;20166;-62
2022/10/31 04:02:00;;;;;;;1999.90;999.90;;;;;;;9.76;100.00;94480.19;5055788;28;20184;-62
2022/10/31 04:04:28;;;;;;;1999.90;999.90;;;;;;;9.76;100.00;94466.53;5054911;28;20206;-62
2022/10/31 04:06:56;;;;;;;1999.90;999.90;;;;;;;9.77;100.00;94457.94;5055283;28;20213;-62
2022/10/31 04:09:23;;;;;;;1999.90;999.90;;;;;;;9.80;100.00;94445.44;5055244;28;20189;-62
2022/10/31 04:11:52;;;;;;;1999.90;999.90;;;;;;;9.81;100.00;94452.44;5055694;28;20229;-62
2022/10/31 04:14:18;;;;;;;1999.90;999.90;;;;;;;9.81;100.00;94446.97;5055733;28;20175;-65
2022/10/31 04:16:44;;;;;;;1999.90;999.90;;;;;;;9.78;100.00;94448.59;5054613;28;20183;-63
2022/10/31 04:19:11;;;;;;;1999.90;999.90;;;;;;;9.75;100.00;94446.72;5054859;28;20174;-63
2022/10/31 04:21:36;;;;;;;1999.90;999.90;;;;;;;9.77;100.00;94446.28;5054675;28;20181;-63
2022/10/31 04:24:01;;;;;;;1999.90;999.90;;;;;;;9.78;100.00;94431.47;5054989;28;20247;-63
2022/10/31 04:26:27;;;;;;;1999.90;999.90;;;;;;;9.82;100.00;94422.03;5054906;28;20186;-63
2022/10/31 04:28:52;;;;;;;1999.90;999.90;;;;;;;9.81;100.00;94425.91;5054619;28;20230;-63
2022/10/31 04:31:18;;;;;;;1999.90;999.90;;;;;;;9.78;100.00;94421.34;5054808;28;20198;-69
2022/10/31 04:33:43;;;;;;;1999.90;999.90;;;;;;;9.78;100.00;94421.34;5054724;28;20174;-61
2022/10/31 04:36:08;;;;;;;1999.90;999.90;;;;;;;9.78;100.00;94420.56;5055251;28;20177;-61
2022/10/31 04:38:34;;;;;;;1999.90;999.90;;;;;;;9.77;100.00;94419.78;5054614;28;20174;-61
2022/10/31 04:40:59;;;;;;;1999.90;999.90;;;;;;;9.74;100.00;94431.53;5054472;28;20181;-61
2022/10/31 04:43:25;;;;;;;1999.90;999.90;;;;;;;9.73;100.00;94440.91;5054129;28;20269;-61
2022/10/31 04:45:50;;;;;;;1999.90;999.90;;;;;;;9.72;100.00;94424.97;5054416;28;20173;-62
2022/10/31 04:48:15;;;;;;;1999.90;999.90;;;;;;;9.72;100.00;94428.47;5054350;28;20170;-62
2022/10/31 04:50:41;;;;;;;1999.90;999.90;;;;;;;9.70;100.00;94430.06;5054138;28;20190;-62
2022/10/31 04:53:06;;;;;;;1999.90;999.90;;;;;;;9.61;100.00;94438.81;5054073;28;20184;-71
2022/10/31 04:55:31;;;;;;;1999.90;999.90;;;;;;;9.57;100.00;94440.06;5054259;28;20335;-71
2022/10/31 04:57:57;;;;;;;1999.90;999.90;;;;;;;9.55;100.00;94450.63;5055057;28;20174;-71
2022/10/31 05:00:23;;;;;;;1999.90;999.90;;;;;;;9.54;100.00;94447.13;5054352;28;20184;-69
2022/10/31 05:02:52;;;;;;;1999.90;999.90;;;;;;;9.51;100.00;94445.22;5054271;28;20179;-71
2022/10/31 05:05:20;;;;;;;1999.90;999.90;;;;;;;9.49;100.00;94441.41;5054073;28;20190;-73
2022/10/31 05:07:47;;;;;;;1999.90;999.90;;;;;;;9.47;100.00;94433.63;5053991;28;20198;-64
2022/10/31 05:10:16;;;;;;;1999.90;999.90;;;;;;;9.45;100.00;94425.13;5053955;28;20248;-62
2022/10/31 05:12:50;;;;;;;1999.90;999.90;;;;;;;9.41;100.00;94429.88;5054277;28;20273;-65
2022/10/31 05:15:16;;;;;;;1999.90;999.90;;;;;;;9.40;100.00;94428.31;5054707;28;20179;-64
2022/10/31 05:17:42;;;;;;;1999.90;999.90;;;;;;;9.37;100.00;94420.97;5053791;28;20177;-64
2022/10/31 05:20:08;;;;;;;1999.90;999.90;;;;;;;9.33;100.00;94417.56;5053577;28;20185;-64
2022/10/31 05:22:33;;;;;;;1999.90;999.90;;;;;;;9.32;100.00;94416.03;5054286;28;20178;-65
2022/10/31 05:24:59;;;;;;;1999.90;999.90;;;;;;;9.30;100.00;94404.81;5053786;28;20178;-66
2022/10/31 05:27:24;;;;;;;1999.90;999.90;;;;;;;9.31;100.00;94395.44;5052839;28;20185;-68
2022/10/31 05:29:49;;;;;;;1999.90;999.90;;;;;;;9.27;100.00;94386.56;5053247;28;20197;-75
2022/10/31 05:32:15;;;;;;;1999.90;999.90;;;;;;;9.26;100.00;94385.00;5054916;28;20185;-72
2022/10/31 05:34:40;;;;;;;1999.90;999.90;;;;;;;9.25;100.00;94388.94;5053734;28;20182;-76
2022/10/31 05:37:05;;;;;;;1999.90;999.90;;;;;;;9.22;100.00;94373.41;5053628;28;20239;-72
2022/10/31 05:39:31;;;;;;;1999.90;999.90;;;;;;;9.20;100.00;94362.19;5053347;28;20182;-72
2022/10/31 05:41:56;;;;;;;1999.90;999.90;;;;;;;9.19;100.00;94368.84;5054339;28;20174;-74
2022/10/31 05:44:21;;;;;;;1999.90;999.90;;;;;;;9.18;100.00;94366.53;5053556;28;20241;-62
2022/10/31 05:46:47;;;;;;;1999.90;999.90;;;;;;;9.17;100.00;94371.19;5053957;28;20174;-63
2022/10/31 05:49:12;;;;;;;1999.90;999.90;;;;;;;9.13;100.00;94375.94;5053513;28;20173;-68
2022/10/31 05:51:38;;;;;;;1999.90;999.90;;;;;;;9.06;100.00;94380.75;5053099;28;20205;-68
2022/10/31 05:54:03;;;;;;;1999.90;999.90;;;;;;;9.04;100.00;94389.31;5053871;28;20178;-68
2022/10/31 05:56:29;;;;;;;1999.90;999.90;;;;;;;9.03;100.00;94384.31;5053548;28;20205;-68
2022/10/31 05:58:54;;;;;;;1999.90;999.90;;;;;;;9.06;100.00;94378.81;5053393;28;20200;-68
2022/10/31 06:01:19;;;;;;;1999.90;999.90;;;;;;;9.08;100.00;94378.38;5053934;28;20209;-69
2022/10/31 06:03:45;;;;;;;1999.90;999.90;;;;;;;9.10;100.00;94374.06;5052992;28;20233;-63
2022/10/31 06:06:10;;;;;;;1999.90;999.90;;;;;;;9.10;100.00;94371.31;5053902;28;20184;-67
2022/10/31 06:08:36;;;;;;;1999.90;999.90;;;;;;;9.14;100.00;94371.28;5053317;28;20181;-67
2022/10/31 06:11:01;;;;;;;1999.90;999.90;;;;;;;9.23;100.00;94368.75;5053196;28;20202;-68
2022/10/31 06:13:26;;;;;;;1999.90;999.90;;;;;;;9.41;100.00;94364.50;5053742;28;20174;-67
2022/10/31 06:15:52;;;;;;;1999.90;999.90;;;;;;;9.69;100.00;94358.44;5052802;28;20182;-68
2022/10/31 06:18:17;;;;;;;1999.90;999.90;;;;;;;10.04;100.00;94357.66;5053218;28;20213;-67
2022/10/31 06:20:42;;;;;;;1999.90;999.90;;;;;;;10.52;100.00;94369.78;5053252;28;20178;-65
2022/10/31 06:23:08;;;;;;;1999.90;999.90;;;;;;;10.84;100.00;94424.34;5072427;28;20185;-67
2022/10/31 06:25:33;;;;;;;1999.90;999.90;;;;;;;11.30;100.00;94522.34;5072601;28;20196;-62
2022/10/31 06:27:58;;;;;;;1999.90;999.90;;;;;;;11.88;100.00;94639.63;5071953;28;20232;-62
2022/10/31 06:30:24;;;;;;;1999.90;999.90;;;;;;;12.45;100.00;94857.97;5072620;28;20202;-62
2022/10/31 06:32:49;;;;;;;1999.90;999.90;;;;;;;12.79;100.00;95107.66;5072060;28;20188;-63
2022/10/31 06:35:15;;;;;;;1999.90;999.90;;;;;;;13.18;100.00;95274.84;5055483;28;20181;-63
2022/10/31 06:37:40;;;;;;;1999.90;999.90;;;;;;;13.63;100.00;95418.56;5072450;28;20284;-63
2022/10/31 06:40:06;;;;;;;1999.90;999.90;;;;;;;14.12;100.00;95505.44;5074294;28;20181;-74
2022/10/31 06:42:32;;;;;;;1999.90;999.90;;;;;;;14.30;100.00;95582.81;5076425;28;20181;-68
2022/10/31 06:44:57;;;;;;;1999.90;999.90;;;;;;;14.60;100.00;95614.81;5076647;28;20219;-68
2022/10/31 06:47:22;;;;;;;1999.90;999.90;;;;;;;15.14;100.00;95647.03;5075954;28;20227;-67
2022/10/31 06:49:48;;;;;;;1999.90;999.90;;;;;;;15.60;100.00;95660.59;5076281;28;20213;-69
2022/10/31 06:52:13;;;;;;;1999.90;999.90;;;;;;;16.03;100.00;95685.13;5058882;28;20243;-68
2022/10/31 06:54:38;;;;;;;1999.90;999.90;;;;;;;16.50;100.00;95696.56;5062206;28;20186;-69
2022/10/31 06:57:04;;;;;;;1999.90;999.90;;;;;;;17.04;100.00;95702.97;5056514;28;20273;-68
2022/10/31 06:59:29;;;;;;;1999.90;999.90;;;;;;;17.30;100.00;95721.16;5056673;28;20216;-65
2022/10/31 07:01:54;;;;;;;1999.90;999.90;;;;;;;17.55;100.00;95726.75;5056087;28;20189;-69
2022/10/31 07:04:20;;;;;;;1999.90;999.90;;;;;;;17.91;100.00;95732.72;5056254;28;20198;-66
2022/10/31 07:06:45;;;;;;;1999.90;999.90;;;;;;;17.83;100.00;95742.44;5056345;28;20190;-68
2022/10/31 07:09:10;;;;;;;1999.90;999.90;;;;;;;18.19;100.00;95751.19;5056195;28;20181;-69
2022/10/31 07:11:36;;;;;;;1999.90;999.90;;;;;;;18.55;100.00;95748.84;5055797;28;20269;-68
2022/10/31 07:14:01;;;;;;;1999.90;999.90;;;;;;;18.83;100.00;95754.19;5056089;28;20219;-70
2022/10/31 07:16:27;;;;;;;1999.90;999.90;;;;;;;19.30;100.00;95756.91;5056485;28;20234;-69
2022/10/31 07:18:52;;;;;;;1999.90;999.90;;;;;;;19.41;100.00;95757.31;5056140;28;20182;-72
2022/10/31 07:21:17;;;;;;;1999.90;999.90;;;;;;;19.69;100.00;95761.81;5056257;28;20205;-65
2022/10/31 07:23:43;;;;;;;1999.90;999.90;;;;;;;20.14;100.00;95750.22;5056582;28;20189;-64
2022/10/31 07:26:09;;;;;;;1999.90;999.90;;;;;;;20.34;100.00;95759.69;5056560;28;20174;-64
2022/10/31 07:28:34;;;;;;;1999.90;999.90;;;;;;;20.28;100.00;95763.53;5055685;28;20263;-64
2022/10/31 07:31:00;;;;;;;1999.90;999.90;;;;;;;20.62;100.00;95766.88;5055850;28;20197;-64
2022/10/31 07:33:26;;;;;;;1999.90;999.90;;;;;;;20.51;100.00;95763.75;5055889;28;20176;-63
2022/10/31 07:35:52;;;;;;;1999.90;999.90;;;;;;;20.19;100.00;95764.25;5055730;28;20228;-66
2022/10/31 07:38:17;;;;;;;1999.90;999.90;;;;;;;20.00;100.00;95762.59;5056810;28;20177;-70
2022/10/31 07:40:43;;;;;;;1999.90;999.90;;;;;;;19.86;100.00;95760.38;5055757;28;20174;-72
2022/10/31 07:43:11;;;;;;;1999.90;999.90;;;;;;;20.36;100.00;95768.31;5055707;28;20185;-71
2022/10/31 07:45:36;;;;;;;1999.90;999.90;;;;;;;20.84;100.00;95759.19;5055356;28;20257;-73
2022/10/31 07:48:02;;;;;;;1999.90;999.90;;;;;;;20.98;100.00;95758.59;5055707;28;20197;-73
2022/10/31 07:50:34;;;;;;;1999.90;999.90;;;;;;;21.05;100.00;95757.56;5055098;28;20202;-72
2022/10/31 07:53:09;;;;;;;1999.90;999.90;;;;;;;20.90;100.00;95768.44;5055134;28;20170;-65
2022/10/31 07:55:35;;;;;;;1999.90;999.90;;;;;;;20.89;100.00;95761.34;5055249;28;20173;-64
2022/10/31 07:58:03;;;;;;;1999.90;999.90;;;;;;;21.32;100.00;95758.31;5055267;28;20205;-65
2022/10/31 08:00:29;;;;;;;1999.90;999.90;;;;;;;21.63;100.00;95750.56;5055389;28;20243;-65
2022/10/31 08:02:58;;;;;;;1999.90;999.90;;;;;;;21.70;100.00;95755.00;5054917;28;20201;-65
2022/10/31 08:05:23;;;;;;;1999.90;999.90;;;;;;;22.06;100.00;95741.81;5055302;28;20198;-66
2022/10/31 08:07:48;;;;;;;1999.90;999.90;;;;;;;21.30;100.00;95752.44;5054979;28;20174;-66
2022/10/31 08:10:14;;;;;;;1999.90;999.90;;;;;;;21.77;100.00;95747.16;5055857;28;20201;-66
2022/10/31 08:12:39;;;;;;;1999.90;999.90;;;;;;;22.45;100.00;95749.09;5055756;28;20182;-64
2022/10/31 08:15:05;;;;;;;1999.90;999.90;;;;;;;22.92;100.00;95739.22;5054920;28;20174;-67
2022/10/31 08:17:35;;;;;;;1999.90;999.90;;;;;;;22.91;100.00;95737.69;5054935;28;20174;-65
2022/10/31 08:20:00;;;;;;;1999.90;999.90;;;;;;;22.71;100.00;95734.72;5054948;28;20173;-64
2022/10/31 08:22:25;;;;;;;1999.90;999.90;;;;;;;22.98;100.00;95737.34;5056023;28;20225;-65
2022/10/31 08:24:51;;;;;;;1999.90;999.90;;;;;;;23.41;100.00;95736.72;5054666;28;20228;-65
2022/10/31 08:27:16;;;;;;;1999.90;999.90;;;;;;;23.77;100.00;95733.53;5054727;28;20178;-65
2022/10/31 08:29:41;;;;;;;1999.90;999.90;;;;;;;23.60;100.00;95732.50;5054298;28;20233;-71
2022/10/31 08:32:07;;;;;;;1999.90;999.90;;;;;;;23.71;100.00;95727.13;5054709;28;20261;-71
2022/10/31 08:34:32;;;;;;;1999.90;999.90;;;;;;;24.16;100.00;95723.84;5054218;28;20178;-72
2022/10/31 08:36:58;;;;;;;1999.90;999.90;;;;;;;24.43;100.00;95721.47;5054677;28;20170;-71
2022/10/31 08:39:23;;;;;;;1999.90;999.90;;;;;;;24.72;100.00;95717.84;5054529;28;20178;-72
2022/10/31 08:41:49;;;;;;;1999.90;999.90;;;;;;;24.18;100.00;95718.56;5054643;28;20185;-72
2022/10/31 08:44:15;;;;;;;1999.90;999.90;;;;;;;24.30;100.00;95714.69;5054337;28;20174;-70
2022/10/31 08:46:40;;;;;;;1999.90;999.90;;;;;;;24.53;100.00;95714.53;5054181;28;20178;-70
2022/10/31 08:49:06;;;;;;;1999.90;999.90;;;;;;;23.78;100.00;95710.00;5054983;28;20174;-66
2022/10/31 08:51:31;;;;;;;1999.90;999.90;;;;;;;23.92;100.00;95709.19;5054443;28;20251;-66
2022/10/31 08:53:57;;;;;;;1999.90;999.90;;;;;;;24.39;100.00;95703.38;5054249;28;20174;-66
2022/10/31 08:56:23;;;;;;;1999.90;999.90;;;;;;;24.80;100.00;95705.75;5054288;28;20170;-66
2022/10/31 08:58:48;;;;;;;1999.90;999.90;;;;;;;24.45;100.00;95701.44;5054727;28;20268;-66
2022/10/31 09:01:13;;;;;;;1999.90;999.90;;;;;;;24.67;100.00;95696.19;5054246;28;20227;-66
2022/10/31 09:03:39;;;;;;;1999.90;999.90;;;;;;;24.88;100.00;95695.69;5053778;28;20201;-65
2022/10/31 09:06:08;;;;;;;1999.90;999.90;;;;;;;25.07;97.67;95701.78;5053896;28;20195;-65
2022/10/31 09:08:34;;;;;;;1999.90;999.90;;;;;;;25.09;96.06;95691.66;5054235;28;20177;-67
2022/10/31 09:11:00;;;;;;;1999.90;999.90;;;;;;;25.65;96.02;95678.28;5054897;28;20288;-65
2022/10/31 09:13:25;;;;;;;1999.90;999.90;;;;;;;26.04;90.37;95682.22;5054066;28;20197;-65
2022/10/31 09:15:51;;;;;;;1999.90;999.90;;;;;;;26.03;89.14;95675.84;5054519;28;20219;-65
2022/10/31 09:18:19;;;;;;;1999.90;999.90;;;;;;;26.00;90.22;95679.63;5053705;28;20174;-64
2022/10/31 09:20:47;;;;;;;1999.90;999.90;;;;;;;25.93;90.78;95676.50;5053792;28;20166;-65
2022/10/31 09:23:18;;;;;;;1999.90;999.90;;;;;;;25.62;90.44;95680.03;5053828;28;20174;-65
2022/10/31 09:25:44;;;;;;;1999.90;999.90;;;;;;;25.97;88.64;95672.25;5054232;28;20170;-73
2022/10/31 09:28:11;;;;;;;1999.90;999.90;;;;;;;25.78;90.42;95667.47;5053551;28;20221;-66
2022/10/31 09:30:37;;;;;;;1999.90;999.90;;;;;;;24.24;100.00;95669.13;5053613;28;20197;-66
2022/10/31 09:33:20;;;;;;;1999.90;999.90;;;;;;;24.33;100.00;95669.03;5112541;27;20544;-65
2022/10/31 09:35:46;;;;;;;1999.90;999.90;;;;;;;23.90;100.00;95661.47;5094130;28;20184;-65
2022/10/31 09:38:16;;;;;;;1999.90;999.90;;;;;;;24.19;100.00;95655.88;5094233;28;20197;-66
2022/10/31 09:41:12;;;;;;;1999.90;999.90;;;;;;;23.19;100.00;95658.19;5094773;28;20671;-67
2022/10/31 09:44:24;;;;;;;1999.90;999.90;;;;;;;23.03;100.00;95656.63;5094891;28;20198;-73
2022/10/31 09:46:58;;;;;;;1999.90;999.90;;;;;;;23.16;100.00;95661.94;5094017;28;20282;-73
2022/10/31 09:49:33;;;;;;;1999.90;999.90;;;;;;;23.24;100.00;95651.97;5094406;28;20169;-73
2022/10/31 09:52:04;;;;;;;1999.90;999.90;;;;;;;23.38;100.00;95654.00;5094542;28;20203;-73
2022/10/31 09:54:41;;;;;;;1999.90;999.90;;;;;;;22.88;100.00;95652.28;5094838;28;20199;-74
2022/10/31 09:57:12;;;;;;;1999.90;999.90;;;;;;;22.68;100.00;95652.13;5093931;28;20210;-75
2022/10/31 09:59:40;;;;;;;1999.90;999.90;;;;;;;22.04;100.00;95651.72;5094276;28;20168;-74
2022/10/31 10:02:14;;;;;;;1999.90;999.90;;;;;;;21.75;100.00;95649.50;5093692;28;20172;-63
2022/10/31 10:04:51;;;;;;;1999.90;999.90;;;;;;;22.09;100.00;95651.84;5094012;28;20196;-66
2022/10/31 10:07:22;;;;;;;1999.90;999.90;;;;;;;21.71;100.00;95642.56;5094219;28;20179;-66
2022/10/31 10:09:48;;;;;;;1999.90;999.90;;;;;;;21.70;100.00;95638.22;5093832;28;20183;-65
2022/10/31 10:12:49;;;;;;;1999.90;999.90;;;;;;;21.53;100.00;95642.63;5093404;28;20195;-66
2022/10/31 10:15:29;;;;;;;1999.90;999.90;;;;;;;21.42;100.00;95636.78;5093002;28;20176;-66
2022/10/31 10:18:17;;;;;;;1999.90;999.90;;;;;;;22.29;100.00;95640.16;5094253;28;20225;-66
2022/10/31 10:20:50;;;;;;;1999.90;999.90;;;;;;;22.92;100.00;95638.94;5093311;28;20168;-63
2022/10/31 10:23:16;;;;;;;1999.90;999.90;;;;;;;22.70;100.00;95638.47;5094051;28;20172;-63
2022/10/31 10:25:44;;;;;;;1999.90;999.90;;;;;;;22.76;100.00;95631.03;5093981;28;20172;-65
2022/10/31 10:28:38;;;;;;;1999.90;999.90;;;;;;;22.60;100.00;95637.00;5093142;28;20195;-65
2022/10/31 10:31:12;;;;;;;1999.90;999.90;;;;;;;22.28;100.00;95630.25;5093024;28;20179;-65
2022/10/31 10:33:53;;;;;;;1999.90;999.90;;;;;;;22.79;100.00;95628.03;5093066;28;20180;-65
2022/10/31 10:36:25;;;;;;;1999.90;999.90;;;;;;;22.65;100.00;95625.22;5093123;28;20168;-65
2022/10/31 10:38:56;;;;;;;1999.90;999.90;;;;;;;22.22;100.00;95623.78;5093907;28;20182;-63
2022/10/31 10:41:24;;;;;;;1999.90;999.90;;;;;;;21.94;100.00;95625.97;5093180;28;20187;-65
2022/10/31 10:43:51;;;;;;;1999.90;999.90;;;;;;;21.62;100.00;95623.91;5084226;28;20204;-74
2022/10/31 10:49:28;;;;;;;1999.90;999.90;;;;;;;21.03;100.00;95621.13;5097690;28;20167;-73
2022/10/31 10:52:08;;;;;;;1999.90;999.90;;;;;;;21.21;100.00;95616.31;5079945;28;20200;-78
2022/10/31 10:54:46;;;;;;;1999.90;999.90;;;;;;;20.73;100.00;95625.59;5079548;28;20255;-77
2022/10/31 10:57:36;;;;;;;1999.90;999.90;;;;;;;20.35;100.00;95619.72;5080047;28;20169;-75
2022/10/31 11:00:19;;;;;;;1999.90;999.90;;;;;;;20.32;100.00;95615.09;5079752;28;20183;-71